KDPA/DPA METAR and TAF weather

Enter ICAO airport designator
Station Type Date Time Source
KDPA METAR 2018/01/19 22:52 UTC NOAA

KDPA 192252Z 19013KT 6SM HZ CLR 02/M02 A2974 RMK AO2 SLP079 T00171017


Station Type Date Time Source
KDPA Decoded METAR 2018/01/19 22:52 UTC NOAA

CHICAGO/WEST CH DUPAGE, IL, United States (KDPA) 41-54N 88-15W 230M
Jan 19, 2018 - 05:52 PM EST / 2018.01.19 2252 UTC
Wind: from the S (190 degrees) at 15 MPH (13 KT):0
Visibility: 6 mile(s):0
Sky conditions: clear
Weather: haze
Temperature: 35.1 F (1.7 C)
Dew Point: 28.9 F (-1.7 C)
Relative Humidity: 78%
Pressure (altimeter): 29.74 in. Hg (1007 hPa)
ob: KDPA 192252Z 19013KT 6SM HZ CLR 02/M02 A2974 RMK AO2 SLP079 T00171017
cycle: 23

Station Type Date Time Source
KDPA TAF 2018/01/19 21:57 UTC NOAA

TAF
AMD KDPA 192055Z 1921/2018 21014G23KT P6SM SCT250
FM200000 21016G27KT P6SM BKN250 WS020/23055KT
FM200700 23011KT P6SM BKN250
FM201700 24008KT P6SM BKN020


Example: see airport list